sensor_id;sensor_type;location;lat;lon;timestamp;temperature;humidity
6627;DHT22;3349;49.830;8.748;2022-08-19T00:00:08;20.00;1.00
6627;DHT22;3349;49.830;8.748;2022-08-19T00:02:36;20.00;1.00
6627;DHT22;3349;49.830;8.748;2022-08-19T00:05:05;20.10;1.00
6627;DHT22;3349;49.830;8.748;2022-08-19T00:07:32;20.10;1.00
6627;DHT22;3349;49.830;8.748;2022-08-19T00:09:59;20.10;1.00
6627;DHT22;3349;49.830;8.748;2022-08-19T00:12:26;20.10;1.00
6627;DHT22;3349;49.830;8.748;2022-08-19T00:14:52;20.10;1.00
6627;DHT22;3349;49.830;8.748;2022-08-19T00:17:20;20.10;1.00
6627;DHT22;3349;49.830;8.748;2022-08-19T00:19:47;20.10;1.00
6627;DHT22;3349;49.830;8.748;2022-08-19T00:22:15;20.10;1.00
6627;DHT22;3349;49.830;8.748;2022-08-19T00:24:42;20.10;1.00
6627;DHT22;3349;49.830;8.748;2022-08-19T00:27:09;20.20;1.00
6627;DHT22;3349;49.830;8.748;2022-08-19T00:29:36;20.10;1.00
6627;DHT22;3349;49.830;8.748;2022-08-19T00:32:03;20.10;1.00
6627;DHT22;3349;49.830;8.748;2022-08-19T00:34:30;20.10;1.00
6627;DHT22;3349;49.830;8.748;2022-08-19T00:36:57;20.10;1.00
6627;DHT22;3349;49.830;8.748;2022-08-19T00:39:26;20.20;1.00
6627;DHT22;3349;49.830;8.748;2022-08-19T00:41:53;20.20;1.00
6627;DHT22;3349;49.830;8.748;2022-08-19T00:44:23;20.20;1.00
6627;DHT22;3349;49.830;8.748;2022-08-19T00:46:51;20.30;1.00
6627;DHT22;3349;49.830;8.748;2022-08-19T00:49:21;20.30;1.00
6627;DHT22;3349;49.830;8.748;2022-08-19T00:51:52;20.40;1.00
6627;DHT22;3349;49.830;8.748;2022-08-19T00:54:20;20.40;1.00
6627;DHT22;3349;49.830;8.748;2022-08-19T00:56:49;20.40;1.00
6627;DHT22;3349;49.830;8.748;2022-08-19T00:59:18;20.40;1.00
6627;DHT22;3349;49.830;8.748;2022-08-19T01:01:45;20.40;1.00
6627;DHT22;3349;49.830;8.748;2022-08-19T01:04:13;20.50;1.00
6627;DHT22;3349;49.830;8.748;2022-08-19T01:06:40;20.50;1.00
6627;DHT22;3349;49.830;8.748;2022-08-19T01:09:08;20.50;1.00
6627;DHT22;3349;49.830;8.748;2022-08-19T01:11:39;20.50;1.00
6627;DHT22;3349;49.830;8.748;2022-08-19T01:14:09;20.60;1.00
6627;DHT22;3349;49.830;8.748;2022-08-19T01:16:37;20.60;1.00
6627;DHT22;3349;49.830;8.748;2022-08-19T01:19:12;20.60;1.00
6627;DHT22;3349;49.830;8.748;2022-08-19T01:21:45;20.60;1.00
6627;DHT22;3349;49.830;8.748;2022-08-19T01:24:17;20.60;1.00
6627;DHT22;3349;49.830;8.748;2022-08-19T01:26:44;20.60;1.00
6627;DHT22;3349;49.830;8.748;2022-08-19T01:29:12;20.60;1.00
6627;DHT22;3349;49.830;8.748;2022-08-19T01:31:39;20.60;1.00
6627;DHT22;3349;49.830;8.748;2022-08-19T01:34:06;20.60;1.00
6627;DHT22;3349;49.830;8.748;2022-08-19T01:36:36;20.60;1.00
6627;DHT22;3349;49.830;8.748;2022-08-19T01:39:06;20.60;1.00
6627;DHT22;3349;49.830;8.748;2022-08-19T01:41:35;20.60;1.00
6627;DHT22;3349;49.830;8.748;2022-08-19T01:44:03;20.60;1.00
6627;DHT22;3349;49.830;8.748;2022-08-19T01:46:30;20.60;1.00
6627;DHT22;3349;49.830;8.748;2022-08-19T01:48:57;20.60;1.00
6627;DHT22;3349;49.830;8.748;2022-08-19T01:51:24;20.60;1.00
6627;DHT22;3349;49.830;8.748;2022-08-19T01:53:51;20.60;1.00
6627;DHT22;3349;49.830;8.748;2022-08-19T01:56:19;20.50;1.00
6627;DHT22;3349;49.830;8.748;2022-08-19T01:58:51;20.50;1.00
6627;DHT22;3349;49.830;8.748;2022-08-19T02:01:19;20.50;1.00
6627;DHT22;3349;49.830;8.748;2022-08-19T02:03:46;20.50;1.00
6627;DHT22;3349;49.830;8.748;2022-08-19T02:06:13;20.50;1.00
6627;DHT22;3349;49.830;8.748;2022-08-19T02:08:42;20.50;1.00
6627;DHT22;3349;49.830;8.748;2022-08-19T02:11:19;20.50;1.00
6627;DHT22;3349;49.830;8.748;2022-08-19T02:13:47;20.60;1.00
6627;DHT22;3349;49.830;8.748;2022-08-19T02:16:15;20.60;1.00
6627;DHT22;3349;49.830;8.748;2022-08-19T02:18:42;20.60;1.00
6627;DHT22;3349;49.830;8.748;2022-08-19T02:21:09;20.50;1.00
6627;DHT22;3349;49.830;8.748;2022-08-19T02:23:37;20.60;1.00
6627;DHT22;3349;49.830;8.748;2022-08-19T02:26:04;20.60;1.00
6627;DHT22;3349;49.830;8.748;2022-08-19T02:28:31;20.60;1.00
6627;DHT22;3349;49.830;8.748;2022-08-19T02:30:59;20.60;1.00
6627;DHT22;3349;49.830;8.748;2022-08-19T02:33:27;20.60;1.00
6627;DHT22;3349;49.830;8.748;2022-08-19T02:35:54;20.60;1.00
6627;DHT22;3349;49.830;8.748;2022-08-19T02:38:21;20.50;1.00
6627;DHT22;3349;49.830;8.748;2022-08-19T02:40:55;20.50;1.00
6627;DHT22;3349;49.830;8.748;2022-08-19T02:43:25;20.50;1.00
6627;DHT22;3349;49.830;8.748;2022-08-19T02:45:52;20.40;1.00
6627;DHT22;3349;49.830;8.748;2022-08-19T02:48:23;20.40;1.00
6627;DHT22;3349;49.830;8.748;2022-08-19T02:50:51;20.30;1.00
6627;DHT22;3349;49.830;8.748;2022-08-19T02:53:21;20.20;1.00
6627;DHT22;3349;49.830;8.748;2022-08-19T02:55:49;20.10;1.00
6627;DHT22;3349;49.830;8.748;2022-08-19T02:58:17;20.00;1.00
6627;DHT22;3349;49.830;8.748;2022-08-19T03:00:46;19.90;1.00
6627;DHT22;3349;49.830;8.748;2022-08-19T03:03:13;19.80;1.00
6627;DHT22;3349;49.830;8.748;2022-08-19T03:05:42;19.70;1.00
6627;DHT22;3349;49.830;8.748;2022-08-19T03:08:10;19.70;1.00
6627;DHT22;3349;49.830;8.748;2022-08-19T03:10:42;19.60;1.00
6627;DHT22;3349;49.830;8.748;2022-08-19T03:13:11;19.50;1.00
6627;DHT22;3349;49.830;8.748;2022-08-19T03:15:42;19.50;1.00
6627;DHT22;3349;49.830;8.748;2022-08-19T03:18:10;19.40;1.00
6627;DHT22;3349;49.830;8.748;2022-08-19T03:20:43;19.40;1.00
6627;DHT22;3349;49.830;8.748;2022-08-19T03:23:10;19.30;1.00
6627;DHT22;3349;49.830;8.748;2022-08-19T03:25:38;19.30;1.00
6627;DHT22;3349;49.830;8.748;2022-08-19T03:28:07;19.30;1.00
6627;DHT22;3349;49.830;8.748;2022-08-19T03:30:34;19.30;1.00
6627;DHT22;3349;49.830;8.748;2022-08-19T03:33:00;19.30;1.00
6627;DHT22;3349;49.830;8.748;2022-08-19T03:35:28;19.30;1.00
6627;DHT22;3349;49.830;8.748;2022-08-19T03:37:56;19.30;1.00
6627;DHT22;3349;49.830;8.748;2022-08-19T03:40:24;19.30;1.00
6627;DHT22;3349;49.830;8.748;2022-08-19T03:42:51;19.30;1.00
6627;DHT22;3349;49.830;8.748;2022-08-19T03:45:18;19.30;1.00
6627;DHT22;3349;49.830;8.748;2022-08-19T03:47:47;19.30;1.00
6627;DHT22;3349;49.830;8.748;2022-08-19T03:50:14;19.30;1.00
6627;DHT22;3349;49.830;8.748;2022-08-19T03:52:41;19.30;1.00
6627;DHT22;3349;49.830;8.748;2022-08-19T03:55:09;19.30;1.00
6627;DHT22;3349;49.830;8.748;2022-08-19T03:57:37;19.30;1.00
6627;DHT22;3349;49.830;8.748;2022-08-19T04:00:05;19.20;1.00
6627;DHT22;3349;49.830;8.748;2022-08-19T04:02:33;19.30;1.00
6627;DHT22;3349;49.830;8.748;2022-08-19T04:05:00;19.20;1.00
6627;DHT22;3349;49.830;8.748;2022-08-19T04:07:27;19.30;1.00
6627;DHT22;3349;49.830;8.748;2022-08-19T04:09:53;19.30;1.00
6627;DHT22;3349;49.830;8.748;2022-08-19T04:12:21;19.20;1.00
6627;DHT22;3349;49.830;8.748;2022-08-19T04:14:48;19.20;1.00
6627;DHT22;3349;49.830;8.748;2022-08-19T04:17:15;19.30;1.00
6627;DHT22;3349;49.830;8.748;2022-08-19T04:19:42;19.30;1.00
6627;DHT22;3349;49.830;8.748;2022-08-19T04:22:09;19.30;1.00
6627;DHT22;3349;49.830;8.748;2022-08-19T04:24:36;19.30;1.00
6627;DHT22;3349;49.830;8.748;2022-08-19T04:27:04;19.30;1.00
6627;DHT22;3349;49.830;8.748;2022-08-19T04:29:33;19.30;1.00
6627;DHT22;3349;49.830;8.748;2022-08-19T04:32:01;19.30;1.00
6627;DHT22;3349;49.830;8.748;2022-08-19T04:34:28;19.30;1.00
6627;DHT22;3349;49.830;8.748;2022-08-19T04:36:57;19.40;1.00
6627;DHT22;3349;49.830;8.748;2022-08-19T04:39:26;19.40;1.00
6627;DHT22;3349;49.830;8.748;2022-08-19T04:42:14;19.50;1.00
6627;DHT22;3349;49.830;8.748;2022-08-19T04:44:56;19.50;1.00
6627;DHT22;3349;49.830;8.748;2022-08-19T04:47:24;19.60;1.00
6627;DHT22;3349;49.830;8.748;2022-08-19T04:49:50;19.60;1.00
6627;DHT22;3349;49.830;8.748;2022-08-19T04:52:17;19.70;1.00
6627;DHT22;3349;49.830;8.748;2022-08-19T04:54:44;19.70;1.00
6627;DHT22;3349;49.830;8.748;2022-08-19T04:57:10;19.70;1.00
6627;DHT22;3349;49.830;8.748;2022-08-19T04:59:38;19.70;1.00
6627;DHT22;3349;49.830;8.748;2022-08-19T05:02:09;19.80;1.00
6627;DHT22;3349;49.830;8.748;2022-08-19T05:04:36;19.80;1.00
6627;DHT22;3349;49.830;8.748;2022-08-19T05:07:04;19.80;1.00
6627;DHT22;3349;49.830;8.748;2022-08-19T05:09:31;19.80;1.00
6627;DHT22;3349;49.830;8.748;2022-08-19T05:11:58;19.80;1.00
6627;DHT22;3349;49.830;8.748;2022-08-19T05:14:25;19.80;1.00
6627;DHT22;3349;49.830;8.748;2022-08-19T05:16:52;19.80;1.00
6627;DHT22;3349;49.830;8.748;2022-08-19T05:19:20;19.90;1.00
6627;DHT22;3349;49.830;8.748;2022-08-19T05:22:04;19.90;1.00
6627;DHT22;3349;49.830;8.748;2022-08-19T05:24:48;20.00;1.00
6627;DHT22;3349;49.830;8.748;2022-08-19T05:27:15;20.00;1.00
6627;DHT22;3349;49.830;8.748;2022-08-19T05:29:42;20.10;1.00
6627;DHT22;3349;49.830;8.748;2022-08-19T05:32:08;20.10;1.00
6627;DHT22;3349;49.830;8.748;2022-08-19T05:34:37;20.20;1.00
6627;DHT22;3349;49.830;8.748;2022-08-19T05:37:05;20.20;1.00
6627;DHT22;3349;49.830;8.748;2022-08-19T05:39:34;20.30;1.00
6627;DHT22;3349;49.830;8.748;2022-08-19T05:42:03;20.30;1.00
6627;DHT22;3349;49.830;8.748;2022-08-19T05:44:32;20.30;1.00
6627;DHT22;3349;49.830;8.748;2022-08-19T05:47:01;20.40;1.00
6627;DHT22;3349;49.830;8.748;2022-08-19T05:49:28;20.40;1.00
6627;DHT22;3349;49.830;8.748;2022-08-19T05:51:56;20.40;1.00
6627;DHT22;3349;49.830;8.748;2022-08-19T05:54:24;20.40;1.00
6627;DHT22;3349;49.830;8.748;2022-08-19T05:56:51;20.40;1.00
6627;DHT22;3349;49.830;8.748;2022-08-19T05:59:20;20.50;1.00
6627;DHT22;3349;49.830;8.748;2022-08-19T06:01:49;20.50;1.00
6627;DHT22;3349;49.830;8.748;2022-08-19T06:04:18;20.50;1.00
6627;DHT22;3349;49.830;8.748;2022-08-19T06:06:45;20.60;1.00
6627;DHT22;3349;49.830;8.748;2022-08-19T06:09:14;20.60;1.00
6627;DHT22;3349;49.830;8.748;2022-08-19T06:11:42;20.70;1.00
6627;DHT22;3349;49.830;8.748;2022-08-19T06:14:12;20.70;1.00
6627;DHT22;3349;49.830;8.748;2022-08-19T06:16:41;20.80;1.00
6627;DHT22;3349;49.830;8.748;2022-08-19T06:19:10;20.80;1.00
6627;DHT22;3349;49.830;8.748;2022-08-19T06:21:38;20.90;1.00
6627;DHT22;3349;49.830;8.748;2022-08-19T06:24:07;21.00;1.00
6627;DHT22;3349;49.830;8.748;2022-08-19T06:26:35;21.00;1.00
6627;DHT22;3349;49.830;8.748;2022-08-19T06:29:03;21.10;1.00
6627;DHT22;3349;49.830;8.748;2022-08-19T06:31:32;21.20;1.00
6627;DHT22;3349;49.830;8.748;2022-08-19T06:34:00;21.20;1.00
6627;DHT22;3349;49.830;8.748;2022-08-19T06:36:29;21.30;1.00
6627;DHT22;3349;49.830;8.748;2022-08-19T06:39:00;21.30;1.00
6627;DHT22;3349;49.830;8.748;2022-08-19T06:41:28;21.40;1.00
6627;DHT22;3349;49.830;8.748;2022-08-19T06:43:57;21.50;1.00
6627;DHT22;3349;49.830;8.748;2022-08-19T06:46:24;21.60;1.00
6627;DHT22;3349;49.830;8.748;2022-08-19T06:48:52;21.60;1.00
6627;DHT22;3349;49.830;8.748;2022-08-19T06:51:20;21.60;1.00
6627;DHT22;3349;49.830;8.748;2022-08-19T06:53:50;21.70;1.00
6627;DHT22;3349;49.830;8.748;2022-08-19T06:56:19;21.80;1.00
6627;DHT22;3349;49.830;8.748;2022-08-19T06:58:46;21.90;1.00
6627;DHT22;3349;49.830;8.748;2022-08-19T07:01:15;22.00;1.00
6627;DHT22;3349;49.830;8.748;2022-08-19T07:03:41;22.10;1.00
6627;DHT22;3349;49.830;8.748;2022-08-19T07:06:11;22.10;1.00
6627;DHT22;3349;49.830;8.748;2022-08-19T07:08:40;22.10;1.00
6627;DHT22;3349;49.830;8.748;2022-08-19T07:11:08;22.10;1.00
6627;DHT22;3349;49.830;8.748;2022-08-19T07:13:36;22.30;1.00
6627;DHT22;3349;49.830;8.748;2022-08-19T07:16:05;22.30;1.00
6627;DHT22;3349;49.830;8.748;2022-08-19T07:18:34;22.30;1.00
6627;DHT22;3349;49.830;8.748;2022-08-19T07:21:04;22.30;1.00
6627;DHT22;3349;49.830;8.748;2022-08-19T07:23:31;22.30;1.00
6627;DHT22;3349;49.830;8.748;2022-08-19T07:26:03;22.40;1.00
6627;DHT22;3349;49.830;8.748;2022-08-19T07:28:30;22.50;1.00
6627;DHT22;3349;49.830;8.748;2022-08-19T07:30:57;22.60;1.00
6627;DHT22;3349;49.830;8.748;2022-08-19T07:33:23;22.70;1.00
6627;DHT22;3349;49.830;8.748;2022-08-19T07:35:53;22.80;1.00
6627;DHT22;3349;49.830;8.748;2022-08-19T07:38:20;22.70;1.00
6627;DHT22;3349;49.830;8.748;2022-08-19T07:40:47;22.80;1.00
6627;DHT22;3349;49.830;8.748;2022-08-19T07:43:14;23.00;1.00
6627;DHT22;3349;49.830;8.748;2022-08-19T07:45:41;23.30;1.00
6627;DHT22;3349;49.830;8.748;2022-08-19T07:48:08;23.50;1.00
6627;DHT22;3349;49.830;8.748;2022-08-19T07:50:35;23.50;1.00
6627;DHT22;3349;49.830;8.748;2022-08-19T07:53:04;23.50;1.00
6627;DHT22;3349;49.830;8.748;2022-08-19T07:55:30;23.50;1.00
6627;DHT22;3349;49.830;8.748;2022-08-19T07:57:57;23.60;1.00
6627;DHT22;3349;49.830;8.748;2022-08-19T08:00:24;23.50;1.00
6627;DHT22;3349;49.830;8.748;2022-08-19T08:02:51;24.00;1.00
6627;DHT22;3349;49.830;8.748;2022-08-19T08:05:18;24.50;1.00
6627;DHT22;3349;49.830;8.748;2022-08-19T08:08:04;24.90;1.00
6627;DHT22;3349;49.830;8.748;2022-08-19T08:11:03;25.30;1.00
6627;DHT22;3349;49.830;8.748;2022-08-19T08:13:30;25.10;1.00
6627;DHT22;3349;49.830;8.748;2022-08-19T08:15:58;24.80;1.00
6627;DHT22;3349;49.830;8.748;2022-08-19T08:18:25;24.70;1.00
6627;DHT22;3349;49.830;8.748;2022-08-19T08:20:52;24.60;1.00
6627;DHT22;3349;49.830;8.748;2022-08-19T08:23:20;24.70;1.00
6627;DHT22;3349;49.830;8.748;2022-08-19T08:25:51;24.70;1.00
6627;DHT22;3349;49.830;8.748;2022-08-19T08:28:18;24.90;1.00
6627;DHT22;3349;49.830;8.748;2022-08-19T08:30:46;25.10;1.00
6627;DHT22;3349;49.830;8.748;2022-08-19T08:33:14;26.00;1.00
6627;DHT22;3349;49.830;8.748;2022-08-19T08:35:41;26.90;1.00
6627;DHT22;3349;49.830;8.748;2022-08-19T08:38:08;26.60;1.00
6627;DHT22;3349;49.830;8.748;2022-08-19T08:40:43;26.50;1.00
6627;DHT22;3349;49.830;8.748;2022-08-19T08:43:19;27.10;1.00
6627;DHT22;3349;49.830;8.748;2022-08-19T08:45:52;27.20;1.00
6627;DHT22;3349;49.830;8.748;2022-08-19T08:48:24;27.80;1.00
6627;DHT22;3349;49.830;8.748;2022-08-19T08:50:54;27.30;1.00
6627;DHT22;3349;49.830;8.748;2022-08-19T08:53:23;27.40;1.00
6627;DHT22;3349;49.830;8.748;2022-08-19T08:55:52;28.60;1.00
6627;DHT22;3349;49.830;8.748;2022-08-19T08:58:26;28.90;1.00
6627;DHT22;3349;49.830;8.748;2022-08-19T09:00:56;29.70;1.00
6627;DHT22;3349;49.830;8.748;2022-08-19T09:03:24;30.10;1.00
6627;DHT22;3349;49.830;8.748;2022-08-19T09:05:59;30.20;1.00
6627;DHT22;3349;49.830;8.748;2022-08-19T09:08:36;30.60;1.00
6627;DHT22;3349;49.830;8.748;2022-08-19T09:11:09;30.80;1.00
6627;DHT22;3349;49.830;8.748;2022-08-19T09:13:42;30.70;1.00
6627;DHT22;3349;49.830;8.748;2022-08-19T09:16:13;30.00;1.00
6627;DHT22;3349;49.830;8.748;2022-08-19T09:18:43;30.90;1.00
6627;DHT22;3349;49.830;8.748;2022-08-19T09:21:11;31.70;1.00
6627;DHT22;3349;49.830;8.748;2022-08-19T09:23:38;32.60;1.00
6627;DHT22;3349;49.830;8.748;2022-08-19T09:26:12;33.50;1.00
6627;DHT22;3349;49.830;8.748;2022-08-19T09:28:40;34.10;1.00
6627;DHT22;3349;49.830;8.748;2022-08-19T09:31:09;33.30;1.00
6627;DHT22;3349;49.830;8.748;2022-08-19T09:33:36;32.70;1.00
6627;DHT22;3349;49.830;8.748;2022-08-19T09:36:05;32.00;1.00
6627;DHT22;3349;49.830;8.748;2022-08-19T09:38:32;31.60;1.00
6627;DHT22;3349;49.830;8.748;2022-08-19T09:41:03;31.50;1.00
6627;DHT22;3349;49.830;8.748;2022-08-19T09:43:32;31.90;1.00
6627;DHT22;3349;49.830;8.748;2022-08-19T09:46:02;31.90;1.00
6627;DHT22;3349;49.830;8.748;2022-08-19T09:48:31;31.30;1.00
6627;DHT22;3349;49.830;8.748;2022-08-19T09:51:03;31.00;1.00
6627;DHT22;3349;49.830;8.748;2022-08-19T09:53:30;31.30;1.00
6627;DHT22;3349;49.830;8.748;2022-08-19T09:55:57;31.00;1.00
6627;DHT22;3349;49.830;8.748;2022-08-19T09:58:24;30.80;1.00
6627;DHT22;3349;49.830;8.748;2022-08-19T10:00:54;30.70;1.00
6627;DHT22;3349;49.830;8.748;2022-08-19T10:03:21;30.40;1.00
6627;DHT22;3349;49.830;8.748;2022-08-19T10:05:48;30.00;1.00
6627;DHT22;3349;49.830;8.748;2022-08-19T10:08:17;29.20;1.00
6627;DHT22;3349;49.830;8.748;2022-08-19T10:10:45;28.90;1.00
6627;DHT22;3349;49.830;8.748;2022-08-19T10:13:14;29.10;1.00
6627;DHT22;3349;49.830;8.748;2022-08-19T10:15:41;28.80;1.00
6627;DHT22;3349;49.830;8.748;2022-08-19T10:18:09;28.50;1.00
6627;DHT22;3349;49.830;8.748;2022-08-19T10:20:36;28.20;1.00
6627;DHT22;3349;49.830;8.748;2022-08-19T10:23:03;28.10;1.00
6627;DHT22;3349;49.830;8.748;2022-08-19T10:25:32;28.50;1.00
6627;DHT22;3349;49.830;8.748;2022-08-19T10:28:00;29.20;1.00
6627;DHT22;3349;49.830;8.748;2022-08-19T10:30:27;31.30;1.00
6627;DHT22;3349;49.830;8.748;2022-08-19T10:32:55;31.90;1.00
6627;DHT22;3349;49.830;8.748;2022-08-19T10:35:23;32.50;1.00
6627;DHT22;3349;49.830;8.748;2022-08-19T10:37:52;33.90;1.00
6627;DHT22;3349;49.830;8.748;2022-08-19T10:40:18;35.30;1.00
6627;DHT22;3349;49.830;8.748;2022-08-19T10:42:45;36.10;1.00
6627;DHT22;3349;49.830;8.748;2022-08-19T10:45:12;35.30;1.00
6627;DHT22;3349;49.830;8.748;2022-08-19T10:47:38;34.40;1.00
6627;DHT22;3349;49.830;8.748;2022-08-19T10:50:06;35.10;1.00
6627;DHT22;3349;49.830;8.748;2022-08-19T10:52:52;36.10;1.00
6627;DHT22;3349;49.830;8.748;2022-08-19T10:55:21;36.60;1.00
6627;DHT22;3349;49.830;8.748;2022-08-19T10:58:11;37.70;1.00
6627;DHT22;3349;49.830;8.748;2022-08-19T11:00:38;35.10;1.00
6627;DHT22;3349;49.830;8.748;2022-08-19T11:03:06;34.60;1.00
6627;DHT22;3349;49.830;8.748;2022-08-19T11:05:32;33.30;1.00
6627;DHT22;3349;49.830;8.748;2022-08-19T11:08:01;33.10;1.00
6627;DHT22;3349;49.830;8.748;2022-08-19T11:10:27;32.50;1.00
6627;DHT22;3349;49.830;8.748;2022-08-19T11:12:54;31.40;1.00
6627;DHT22;3349;49.830;8.748;2022-08-19T11:15:22;31.80;1.00
6627;DHT22;3349;49.830;8.748;2022-08-19T11:17:49;34.00;1.00
6627;DHT22;3349;49.830;8.748;2022-08-19T11:20:19;35.20;1.00
6627;DHT22;3349;49.830;8.748;2022-08-19T11:22:46;36.70;1.00
6627;DHT22;3349;49.830;8.748;2022-08-19T11:25:15;37.00;1.00
6627;DHT22;3349;49.830;8.748;2022-08-19T11:27:42;36.60;1.00
6627;DHT22;3349;49.830;8.748;2022-08-19T11:30:12;35.40;1.00
6627;DHT22;3349;49.830;8.748;2022-08-19T11:32:39;35.20;1.00
6627;DHT22;3349;49.830;8.748;2022-08-19T11:35:07;35.50;1.00
6627;DHT22;3349;49.830;8.748;2022-08-19T11:37:34;36.60;1.00
6627;DHT22;3349;49.830;8.748;2022-08-19T11:40:04;35.20;1.00
6627;DHT22;3349;49.830;8.748;2022-08-19T11:42:32;35.60;1.00
6627;DHT22;3349;49.830;8.748;2022-08-19T11:45:16;36.40;1.00
6627;DHT22;3349;49.830;8.748;2022-08-19T11:47:44;37.10;1.00
6627;DHT22;3349;49.830;8.748;2022-08-19T11:50:12;37.90;1.00
6627;DHT22;3349;49.830;8.748;2022-08-19T11:52:38;38.10;1.00
6627;DHT22;3349;49.830;8.748;2022-08-19T11:55:06;37.20;1.00
6627;DHT22;3349;49.830;8.748;2022-08-19T11:57:35;35.20;1.00
6627;DHT22;3349;49.830;8.748;2022-08-19T12:00:03;33.60;1.00
6627;DHT22;3349;49.830;8.748;2022-08-19T12:02:31;33.30;1.00
6627;DHT22;3349;49.830;8.748;2022-08-19T12:04:58;33.60;1.00
6627;DHT22;3349;49.830;8.748;2022-08-19T12:07:28;35.10;1.00
6627;DHT22;3349;49.830;8.748;2022-08-19T12:09:58;34.70;1.00
6627;DHT22;3349;49.830;8.748;2022-08-19T12:12:25;35.30;1.00
6627;DHT22;3349;49.830;8.748;2022-08-19T12:14:53;35.60;1.00
6627;DHT22;3349;49.830;8.748;2022-08-19T12:17:23;35.50;1.00
6627;DHT22;3349;49.830;8.748;2022-08-19T12:19:51;34.30;1.00
6627;DHT22;3349;49.830;8.748;2022-08-19T12:22:17;33.40;1.00
6627;DHT22;3349;49.830;8.748;2022-08-19T12:24:46;32.50;1.00
6627;DHT22;3349;49.830;8.748;2022-08-19T12:27:13;31.50;1.00
6627;DHT22;3349;49.830;8.748;2022-08-19T12:29:40;30.90;1.00
6627;DHT22;3349;49.830;8.748;2022-08-19T12:32:08;30.40;1.00
6627;DHT22;3349;49.830;8.748;2022-08-19T12:34:35;30.60;1.00
6627;DHT22;3349;49.830;8.748;2022-08-19T12:37:04;31.00;1.00
6627;DHT22;3349;49.830;8.748;2022-08-19T12:39:34;31.10;1.00
6627;DHT22;3349;49.830;8.748;2022-08-19T12:42:01;30.80;1.00
6627;DHT22;3349;49.830;8.748;2022-08-19T12:44:28;30.90;1.00
6627;DHT22;3349;49.830;8.748;2022-08-19T12:46:57;30.70;1.00
6627;DHT22;3349;49.830;8.748;2022-08-19T12:49:27;30.20;1.00
6627;DHT22;3349;49.830;8.748;2022-08-19T12:51:54;29.90;1.00
6627;DHT22;3349;49.830;8.748;2022-08-19T12:54:21;29.70;1.00
6627;DHT22;3349;49.830;8.748;2022-08-19T12:56:47;29.80;1.00
6627;DHT22;3349;49.830;8.748;2022-08-19T12:59:14;30.10;1.00
6627;DHT22;3349;49.830;8.748;2022-08-19T13:01:43;30.00;1.00
6627;DHT22;3349;49.830;8.748;2022-08-19T13:04:10;29.80;1.00
6627;DHT22;3349;49.830;8.748;2022-08-19T13:06:38;30.10;1.00
6627;DHT22;3349;49.830;8.748;2022-08-19T13:09:05;30.00;1.00
6627;DHT22;3349;49.830;8.748;2022-08-19T13:11:32;29.90;1.00
6627;DHT22;3349;49.830;8.748;2022-08-19T13:13:59;29.60;1.00
6627;DHT22;3349;49.830;8.748;2022-08-19T13:16:27;29.40;1.00
6627;DHT22;3349;49.830;8.748;2022-08-19T13:18:55;29.30;1.00
6627;DHT22;3349;49.830;8.748;2022-08-19T13:21:24;29.30;1.00
6627;DHT22;3349;49.830;8.748;2022-08-19T13:23:52;29.40;1.00
6627;DHT22;3349;49.830;8.748;2022-08-19T13:26:20;29.60;1.00
6627;DHT22;3349;49.830;8.748;2022-08-19T13:28:47;29.70;1.00
6627;DHT22;3349;49.830;8.748;2022-08-19T13:31:33;29.60;1.00
6627;DHT22;3349;49.830;8.748;2022-08-19T13:34:24;29.70;1.00
6627;DHT22;3349;49.830;8.748;2022-08-19T13:36:52;29.90;1.00
6627;DHT22;3349;49.830;8.748;2022-08-19T13:39:20;30.20;1.00
6627;DHT22;3349;49.830;8.748;2022-08-19T13:41:48;30.30;1.00
6627;DHT22;3349;49.830;8.748;2022-08-19T13:44:15;30.30;1.00
6627;DHT22;3349;49.830;8.748;2022-08-19T13:46:44;30.30;1.00
6627;DHT22;3349;49.830;8.748;2022-08-19T13:49:10;30.20;1.00
6627;DHT22;3349;49.830;8.748;2022-08-19T13:51:38;30.10;1.00
6627;DHT22;3349;49.830;8.748;2022-08-19T13:54:05;30.10;1.00
6627;DHT22;3349;49.830;8.748;2022-08-19T13:56:35;30.00;1.00
6627;DHT22;3349;49.830;8.748;2022-08-19T13:59:05;29.70;1.00
6627;DHT22;3349;49.830;8.748;2022-08-19T14:01:32;29.50;1.00
6627;DHT22;3349;49.830;8.748;2022-08-19T14:04:00;29.40;1.00
6627;DHT22;3349;49.830;8.748;2022-08-19T14:06:27;29.30;1.00
6627;DHT22;3349;49.830;8.748;2022-08-19T14:08:53;29.10;1.00
6627;DHT22;3349;49.830;8.748;2022-08-19T14:11:20;29.00;1.00
6627;DHT22;3349;49.830;8.748;2022-08-19T14:13:49;29.00;1.00
6627;DHT22;3349;49.830;8.748;2022-08-19T14:16:16;29.10;1.00
6627;DHT22;3349;49.830;8.748;2022-08-19T14:18:43;29.00;1.00
6627;DHT22;3349;49.830;8.748;2022-08-19T14:21:15;28.90;1.00
6627;DHT22;3349;49.830;8.748;2022-08-19T14:23:43;29.00;1.00
6627;DHT22;3349;49.830;8.748;2022-08-19T14:26:12;29.10;1.00
6627;DHT22;3349;49.830;8.748;2022-08-19T14:28:40;29.10;1.00
6627;DHT22;3349;49.830;8.748;2022-08-19T14:31:08;29.00;1.00
6627;DHT22;3349;49.830;8.748;2022-08-19T14:33:35;29.00;1.00
6627;DHT22;3349;49.830;8.748;2022-08-19T14:36:03;28.90;1.00
6627;DHT22;3349;49.830;8.748;2022-08-19T14:38:30;28.80;1.00
6627;DHT22;3349;49.830;8.748;2022-08-19T14:41:07;28.80;1.00
6627;DHT22;3349;49.830;8.748;2022-08-19T14:43:34;28.80;1.00
6627;DHT22;3349;49.830;8.748;2022-08-19T14:46:00;28.80;1.00
6627;DHT22;3349;49.830;8.748;2022-08-19T14:48:29;28.70;1.00
6627;DHT22;3349;49.830;8.748;2022-08-19T14:50:56;28.90;1.00
6627;DHT22;3349;49.830;8.748;2022-08-19T14:53:22;29.00;1.00
6627;DHT22;3349;49.830;8.748;2022-08-19T14:55:49;29.10;1.00
6627;DHT22;3349;49.830;8.748;2022-08-19T14:58:16;29.00;1.00
6627;DHT22;3349;49.830;8.748;2022-08-19T15:00:43;29.20;1.00
6627;DHT22;3349;49.830;8.748;2022-08-19T15:03:10;28.90;1.00
6627;DHT22;3349;49.830;8.748;2022-08-19T15:05:39;28.90;1.00
6627;DHT22;3349;49.830;8.748;2022-08-19T15:08:06;28.90;1.00
6627;DHT22;3349;49.830;8.748;2022-08-19T15:10:33;28.90;1.00
6627;DHT22;3349;49.830;8.748;2022-08-19T15:13:00;28.80;1.00
6627;DHT22;3349;49.830;8.748;2022-08-19T15:15:27;28.90;1.00
6627;DHT22;3349;49.830;8.748;2022-08-19T15:17:53;29.00;1.00
6627;DHT22;3349;49.830;8.748;2022-08-19T15:20:22;29.10;1.00
6627;DHT22;3349;49.830;8.748;2022-08-19T15:22:50;29.10;1.00
6627;DHT22;3349;49.830;8.748;2022-08-19T15:25:18;29.10;1.00
6627;DHT22;3349;49.830;8.748;2022-08-19T15:27:46;29.20;1.00
6627;DHT22;3349;49.830;8.748;2022-08-19T15:30:20;29.20;1.00
6627;DHT22;3349;49.830;8.748;2022-08-19T15:32:47;29.40;1.00
6627;DHT22;3349;49.830;8.748;2022-08-19T15:35:14;29.30;1.00
6627;DHT22;3349;49.830;8.748;2022-08-19T15:37:42;29.30;1.00
6627;DHT22;3349;49.830;8.748;2022-08-19T15:40:12;29.30;1.00
6627;DHT22;3349;49.830;8.748;2022-08-19T15:42:38;29.10;1.00
6627;DHT22;3349;49.830;8.748;2022-08-19T15:45:08;28.90;1.00
6627;DHT22;3349;49.830;8.748;2022-08-19T15:47:36;28.90;1.00
6627;DHT22;3349;49.830;8.748;2022-08-19T15:50:05;28.90;1.00
6627;DHT22;3349;49.830;8.748;2022-08-19T15:52:32;28.80;1.00
6627;DHT22;3349;49.830;8.748;2022-08-19T15:54:59;28.80;1.00
6627;DHT22;3349;49.830;8.748;2022-08-19T15:57:28;28.80;1.00
6627;DHT22;3349;49.830;8.748;2022-08-19T16:00:12;28.80;1.00
6627;DHT22;3349;49.830;8.748;2022-08-19T16:02:57;28.60;1.00
6627;DHT22;3349;49.830;8.748;2022-08-19T16:05:41;28.50;1.00
6627;DHT22;3349;49.830;8.748;2022-08-19T16:08:26;28.50;1.00
6627;DHT22;3349;49.830;8.748;2022-08-19T16:10:52;28.30;1.00
6627;DHT22;3349;49.830;8.748;2022-08-19T16:13:21;28.30;1.00
6627;DHT22;3349;49.830;8.748;2022-08-19T16:15:48;28.30;1.00
6627;DHT22;3349;49.830;8.748;2022-08-19T16:18:15;28.20;1.00
6627;DHT22;3349;49.830;8.748;2022-08-19T16:20:42;28.30;1.00
6627;DHT22;3349;49.830;8.748;2022-08-19T16:23:11;28.30;1.00
6627;DHT22;3349;49.830;8.748;2022-08-19T16:25:37;28.30;1.00